• Join FlightAware (Why Join?)
  • Login
  • US Flag 
07:44AM EDT


 

Airport Tracker/Info


-or-


 

Live Flight TrackerFlight Track Log ✈ N869MA ✈ 13-May-2013 ✈ KOSU - KVPZ

Flight Track Log - Related Links

Times and Time Zones

All times are in EDT time to prevent confusion due to time zone crossing. See the N869MA flight status page for this flight to view local times or setup timezone preferences in your user account.

Time Position Orientation Groundspeed Altitude Reporting Facility
EDT Latitude Longitude Course Direction KTS MPH feet Rate Location/Type
07:43AM 40.1217 -83.2203 297° West 112 129 5,300  Level Indianapolis Center
07:44AM 40.1347 -83.2542 297° West 107 123 6,400 1,020 Climbing Indianapolis Center
07:45AM 40.1481 -83.2883 297° West 105 121 7,500 1,140 Climbing Indianapolis Center
07:46AM 40.1619 -83.3289 294° West 105 121 8,800 1,140 Climbing Indianapolis Center
07:47AM 40.1758 -83.3642 297° West 106 122 9,900 780 Climbing Indianapolis Center
07:48AM 40.1903 -83.4022 296° West 116 133 10,400 240 Climbing Indianapolis Center
07:49AM 40.2086 -83.4533 295° West 147 169 10,400 240 Level Indianapolis Center
07:50AM 40.2286 -83.5053 297° West 158 182 11,000 780 Climbing Indianapolis Center
07:51AM 40.2439 -83.5478 295° West 143 165 12,000 660 Climbing Indianapolis Center
07:52AM 40.2589 -83.5886 296° West 129 148 12,400 180 Climbing Indianapolis Center
07:53AM 40.2767 -83.6350 297° West 136 157 12,400  Level Indianapolis Center
07:54AM 40.2939 -83.6836 295° West 143 165 12,400  Level Indianapolis Center
07:55AM 40.3144 -83.7369 297° West 142 163 12,400  Level Indianapolis Center
07:56AM 40.3319 -83.7847 296° West 143 165 12,400  Level Indianapolis Center
07:57AM 40.3489 -83.8317 295° West 142 163 12,400  Level Indianapolis Center
07:58AM 40.3669 -83.8797 296° West 144 166 12,500  Climbing Indianapolis Center
07:59AM 40.3847 -83.9275 296° West 145 167 12,500 -60 Level Indianapolis Center
08:00AM 40.4017 -83.9750 295° West 143 165 12,400  Descending Indianapolis Center
08:01AM 40.4189 -84.0228 295° West 143 165 12,500  Climbing Indianapolis Center
08:02AM 40.4364 -84.0689 297° West 140 161 12,500  Level Indianapolis Center
08:03AM 40.4531 -84.1161 295° West 140 161 12,500  Level Indianapolis Center
08:04AM 40.4728 -84.1708 295° West 140 161 12,500 -60 Level Indianapolis Center
08:05AM 40.4908 -84.2192 296° West 146 168 12,400  Descending Indianapolis Center
08:06AM 40.5075 -84.2639 296° West 138 159 12,500  Climbing Indianapolis Center
08:07AM 40.5244 -84.3125 295° West 144 166 12,500  Level Indianapolis Center
08:08AM 40.5422 -84.3594 297° West 143 165 12,500 -60 Level Indianapolis Center
08:09AM 40.5589 -84.4069 295° West 142 163 12,400 -60 Descending Indianapolis Center
08:10AM 40.5753 -84.4547 294° West 143 165 12,400  Level Indianapolis Center
08:12AM 40.5931 -84.5008 297° West 141 162 12,400  Level Indianapolis Center
08:13AM 40.6089 -84.5486 294° West 142 163 12,400  Level Indianapolis Center
08:14AM 40.6306 -84.6047 297° West 144 166 12,400  Level Indianapolis Center
08:15AM 40.6481 -84.6517 296° West 142 163 12,500  Climbing Indianapolis Center
08:16AM 40.6636 -84.7011 293° West 145 167 12,500  Level Indianapolis Center
08:17AM 40.6817 -84.7497 296° West 146 168 12,500  Level Indianapolis Center
08:18AM 40.6992 -84.7994 295° West 144 166 12,500  Level Chicago Center
08:19AM 40.7161 -84.8469 295° West 143 165 12,500  Level Chicago Center
08:20AM 40.7339 -84.8961 296° West 147 169 12,500  Level Chicago Center
08:21AM 40.7503 -84.9433 295° West 143 165 12,500  Level Chicago Center
08:22AM 40.7672 -84.9925 294° West 146 168 12,500  Level Chicago Center
08:23AM 40.7853 -85.0411 296° West 147 169 12,500  Level Chicago Center
08:24AM 40.8053 -85.0992 294° West 146 168 12,500  Level Chicago Center
08:25AM 40.8225 -85.1472 295° West 145 167 12,500  Level Chicago Center
08:26AM 40.8400 -85.1975 295° West 149 171 12,500  Level Chicago Center
08:27AM 40.8569 -85.2464 295° West 148 170 12,500  Level Chicago Center
08:28AM 40.8744 -85.2964 295° West 148 170 12,500  Level Chicago Center
08:29AM 40.8914 -85.3453 295° West 147 169 12,500  Level Chicago Center
08:30AM 40.9117 -85.4028 295° West 146 168 12,500  Level Chicago Center
08:31AM 40.9283 -85.4519 294° West 146 168 12,500  Level Chicago Center
08:32AM 40.9456 -85.5008 295° West 146 168 12,500  Level Chicago Center
08:33AM 40.9625 -85.5517 294° West 149 171 12,500  Level Chicago Center
08:34AM 40.9797 -85.6006 295° West 147 169 12,500  Level Chicago Center
08:35AM 40.9964 -85.6497 294° West 147 169 12,500  Level Chicago Center
08:36AM 41.0167 -85.7078 295° West 145 167 12,500  Level Chicago Center
08:37AM 41.0333 -85.7567 294° West 145 167 12,500  Level Chicago Center
08:38AM 41.0508 -85.8069 295° West 149 171 12,500  Level Chicago Center
08:39AM 41.0672 -85.8569 294° West 149 171 12,500  Level Chicago Center
08:40AM 41.0842 -85.9044 295° West 145 167 12,500  Level Chicago Center
08:41AM 41.1006 -85.9533 294° West 146 168 12,500  Level Chicago Center
08:43AM 41.1208 -86.0119 295° West 145 167 12,500  Level Chicago Center
08:44AM 41.1372 -86.0608 294° West 145 167 12,500  Level Chicago Center
08:45AM 41.1542 -86.1100 295° West 146 168 12,500  Level Chicago Center
08:46AM 41.1697 -86.1600 292° West 147 169 12,500 -180 Level Chicago Center
08:47AM 41.1864 -86.2083 295° West 146 168 12,200 -600 Descending Chicago Center
08:48AM 41.2064 -86.2633 296° West 161 185 11,300 -1,020 Descending Chicago Center
08:49AM 41.2297 -86.3328 294° West 171 197 10,100 -1,080 Descending Chicago Center
08:50AM 41.2489 -86.3900 294° West 171 197 9,100 -960 Descending Chicago Center
08:51AM 41.2675 -86.4486 293° West 173 199 8,200 -960 Descending Chicago Center
08:52AM 41.2878 -86.5092 294° West 177 204 7,200 -900 Descending Chicago Center
08:53AM 41.3075 -86.5689 294° West 178 205 6,400 -900 Descending Chicago Center
08:54AM 41.3278 -86.6292 294° West 178 205 5,400 -1,020 Descending Chicago Center
08:55AM 41.3511 -86.7008 293° West 177 204 4,300 -780 Descending Chicago Center
08:56AM 41.3717 -86.7603 295° West 176 203 3,800 -540 Descending Chicago Center